sensor_id;sensor_type;location;lat;lon;timestamp;P1;durP1;ratioP1;P2;durP2;ratioP2
21621;SDS011;10973;46.706;12.340;2023-12-20T00:01:17;5.10;;;2.97;;
21621;SDS011;10973;46.706;12.340;2023-12-20T00:03:45;4.63;;;2.90;;
21621;SDS011;10973;46.706;12.340;2023-12-20T00:06:13;4.37;;;3.03;;
21621;SDS011;10973;46.706;12.340;2023-12-20T00:08:41;3.07;;;2.33;;
21621;SDS011;10973;46.706;12.340;2023-12-20T00:11:08;7.50;;;2.67;;
21621;SDS011;10973;46.706;12.340;2023-12-20T00:13:36;5.77;;;3.53;;
21621;SDS011;10973;46.706;12.340;2023-12-20T00:16:04;7.87;;;4.13;;
21621;SDS011;10973;46.706;12.340;2023-12-20T00:18:32;10.63;;;7.10;;
21621;SDS011;10973;46.706;12.340;2023-12-20T00:20:59;7.97;;;4.60;;
21621;SDS011;10973;46.706;12.340;2023-12-20T00:23:27;6.73;;;4.80;;
21621;SDS011;10973;46.706;12.340;2023-12-20T00:25:55;5.50;;;3.70;;
21621;SDS011;10973;46.706;12.340;2023-12-20T00:28:23;6.00;;;4.13;;
21621;SDS011;10973;46.706;12.340;2023-12-20T00:30:51;9.70;;;5.87;;
21621;SDS011;10973;46.706;12.340;2023-12-20T00:33:21;3.87;;;2.70;;
21621;SDS011;10973;46.706;12.340;2023-12-20T00:35:49;3.33;;;2.60;;
21621;SDS011;10973;46.706;12.340;2023-12-20T00:38:17;6.47;;;3.30;;
21621;SDS011;10973;46.706;12.340;2023-12-20T00:40:44;3.77;;;3.40;;
21621;SDS011;10973;46.706;12.340;2023-12-20T00:43:12;6.87;;;3.57;;
21621;SDS011;10973;46.706;12.340;2023-12-20T00:45:40;3.87;;;2.40;;
21621;SDS011;10973;46.706;12.340;2023-12-20T00:48:07;3.37;;;3.00;;
21621;SDS011;10973;46.706;12.340;2023-12-20T00:50:35;4.87;;;2.50;;
21621;SDS011;10973;46.706;12.340;2023-12-20T00:53:03;3.00;;;2.60;;
21621;SDS011;10973;46.706;12.340;2023-12-20T00:55:31;6.00;;;3.40;;
21621;SDS011;10973;46.706;12.340;2023-12-20T00:58:18;2.43;;;2.23;;
21621;SDS011;10973;46.706;12.340;2023-12-20T01:00:46;7.93;;;2.57;;
21621;SDS011;10973;46.706;12.340;2023-12-20T01:03:13;6.10;;;3.70;;
21621;SDS011;10973;46.706;12.340;2023-12-20T01:05:41;3.97;;;3.20;;
21621;SDS011;10973;46.706;12.340;2023-12-20T01:08:09;3.07;;;2.30;;
21621;SDS011;10973;46.706;12.340;2023-12-20T01:10:37;2.70;;;2.50;;
21621;SDS011;10973;46.706;12.340;2023-12-20T01:13:05;3.30;;;2.27;;
21621;SDS011;10973;46.706;12.340;2023-12-20T01:15:33;4.53;;;2.37;;
21621;SDS011;10973;46.706;12.340;2023-12-20T01:18:01;3.10;;;2.37;;
21621;SDS011;10973;46.706;12.340;2023-12-20T01:20:28;2.40;;;2.20;;
21621;SDS011;10973;46.706;12.340;2023-12-20T01:22:56;3.40;;;2.40;;
21621;SDS011;10973;46.706;12.340;2023-12-20T01:25:24;3.13;;;2.80;;
21621;SDS011;10973;46.706;12.340;2023-12-20T01:27:52;2.57;;;2.37;;
21621;SDS011;10973;46.706;12.340;2023-12-20T01:30:19;4.70;;;2.20;;
21621;SDS011;10973;46.706;12.340;2023-12-20T01:32:47;2.97;;;2.40;;
21621;SDS011;10973;46.706;12.340;2023-12-20T01:35:15;2.73;;;2.53;;
21621;SDS011;10973;46.706;12.340;2023-12-20T01:37:42;2.60;;;2.40;;
21621;SDS011;10973;46.706;12.340;2023-12-20T01:40:10;2.60;;;2.27;;
21621;SDS011;10973;46.706;12.340;2023-12-20T01:42:38;3.03;;;2.30;;
21621;SDS011;10973;46.706;12.340;2023-12-20T01:45:06;3.30;;;2.40;;
21621;SDS011;10973;46.706;12.340;2023-12-20T01:47:35;3.30;;;2.43;;
21621;SDS011;10973;46.706;12.340;2023-12-20T01:50:04;3.70;;;2.80;;
21621;SDS011;10973;46.706;12.340;2023-12-20T01:52:33;2.83;;;2.53;;
21621;SDS011;10973;46.706;12.340;2023-12-20T01:55:02;2.63;;;2.43;;
21621;SDS011;10973;46.706;12.340;2023-12-20T01:57:31;2.67;;;2.20;;
21621;SDS011;10973;46.706;12.340;2023-12-20T01:59:59;3.50;;;2.60;;
21621;SDS011;10973;46.706;12.340;2023-12-20T02:02:29;3.07;;;2.40;;
21621;SDS011;10973;46.706;12.340;2023-12-20T02:04:58;3.63;;;2.40;;
21621;SDS011;10973;46.706;12.340;2023-12-20T02:07:26;4.13;;;2.73;;
21621;SDS011;10973;46.706;12.340;2023-12-20T02:09:56;6.70;;;3.50;;
21621;SDS011;10973;46.706;12.340;2023-12-20T02:12:24;3.17;;;2.47;;
21621;SDS011;10973;46.706;12.340;2023-12-20T02:14:52;7.23;;;2.77;;
21621;SDS011;10973;46.706;12.340;2023-12-20T02:17:20;4.07;;;2.73;;
21621;SDS011;10973;46.706;12.340;2023-12-20T02:19:49;4.03;;;2.50;;
21621;SDS011;10973;46.706;12.340;2023-12-20T02:22:17;6.03;;;2.67;;
21621;SDS011;10973;46.706;12.340;2023-12-20T02:24:45;3.27;;;1.97;;
21621;SDS011;10973;46.706;12.340;2023-12-20T02:27:13;3.00;;;2.70;;
21621;SDS011;10973;46.706;12.340;2023-12-20T02:29:46;2.43;;;2.00;;
21621;SDS011;10973;46.706;12.340;2023-12-20T02:32:17;3.53;;;2.50;;
21621;SDS011;10973;46.706;12.340;2023-12-20T02:34:47;4.67;;;2.97;;
21621;SDS011;10973;46.706;12.340;2023-12-20T02:37:15;2.47;;;2.30;;
21621;SDS011;10973;46.706;12.340;2023-12-20T02:39:43;2.97;;;2.50;;
21621;SDS011;10973;46.706;12.340;2023-12-20T02:42:11;2.47;;;2.27;;
21621;SDS011;10973;46.706;12.340;2023-12-20T02:44:42;2.83;;;2.30;;
21621;SDS011;10973;46.706;12.340;2023-12-20T02:47:10;4.27;;;3.87;;
21621;SDS011;10973;46.706;12.340;2023-12-20T02:49:38;5.07;;;3.30;;
21621;SDS011;10973;46.706;12.340;2023-12-20T02:52:07;3.33;;;2.30;;
21621;SDS011;10973;46.706;12.340;2023-12-20T02:54:35;4.37;;;2.73;;
21621;SDS011;10973;46.706;12.340;2023-12-20T02:57:03;3.63;;;2.60;;
21621;SDS011;10973;46.706;12.340;2023-12-20T02:59:32;3.37;;;2.00;;
21621;SDS011;10973;46.706;12.340;2023-12-20T03:02:00;3.83;;;1.90;;
21621;SDS011;10973;46.706;12.340;2023-12-20T03:04:29;2.00;;;1.90;;
21621;SDS011;10973;46.706;12.340;2023-12-20T03:06:57;1.90;;;1.73;;
21621;SDS011;10973;46.706;12.340;2023-12-20T03:09:25;1.73;;;1.63;;
21621;SDS011;10973;46.706;12.340;2023-12-20T03:11:54;2.47;;;1.67;;
21621;SDS011;10973;46.706;12.340;2023-12-20T03:14:22;2.70;;;1.80;;
21621;SDS011;10973;46.706;12.340;2023-12-20T03:16:50;1.93;;;1.83;;
21621;SDS011;10973;46.706;12.340;2023-12-20T03:19:18;4.37;;;3.77;;
21621;SDS011;10973;46.706;12.340;2023-12-20T03:21:46;4.00;;;2.40;;
21621;SDS011;10973;46.706;12.340;2023-12-20T03:24:14;2.60;;;2.40;;
21621;SDS011;10973;46.706;12.340;2023-12-20T03:26:42;3.80;;;2.47;;
21621;SDS011;10973;46.706;12.340;2023-12-20T03:29:10;3.17;;;2.20;;
21621;SDS011;10973;46.706;12.340;2023-12-20T03:31:38;3.00;;;2.30;;
21621;SDS011;10973;46.706;12.340;2023-12-20T03:34:06;2.73;;;2.10;;
21621;SDS011;10973;46.706;12.340;2023-12-20T03:36:34;2.63;;;2.43;;
21621;SDS011;10973;46.706;12.340;2023-12-20T03:39:04;6.03;;;3.70;;
21621;SDS011;10973;46.706;12.340;2023-12-20T03:41:31;3.07;;;2.60;;
21621;SDS011;10973;46.706;12.340;2023-12-20T03:44:00;6.30;;;3.50;;
21621;SDS011;10973;46.706;12.340;2023-12-20T03:46:28;3.10;;;2.80;;
21621;SDS011;10973;46.706;12.340;2023-12-20T03:48:56;3.60;;;2.53;;
21621;SDS011;10973;46.706;12.340;2023-12-20T03:51:23;2.17;;;1.97;;
21621;SDS011;10973;46.706;12.340;2023-12-20T03:53:51;2.07;;;1.97;;
21621;SDS011;10973;46.706;12.340;2023-12-20T03:56:19;2.30;;;2.10;;
21621;SDS011;10973;46.706;12.340;2023-12-20T03:58:46;2.60;;;2.37;;
21621;SDS011;10973;46.706;12.340;2023-12-20T04:01:14;3.27;;;2.70;;
21621;SDS011;10973;46.706;12.340;2023-12-20T04:03:42;3.23;;;2.90;;
21621;SDS011;10973;46.706;12.340;2023-12-20T04:06:09;5.70;;;3.13;;
21621;SDS011;10973;46.706;12.340;2023-12-20T04:08:43;3.30;;;2.97;;
21621;SDS011;10973;46.706;12.340;2023-12-20T04:11:11;5.13;;;3.43;;
21621;SDS011;10973;46.706;12.340;2023-12-20T04:13:38;2.63;;;2.43;;
21621;SDS011;10973;46.706;12.340;2023-12-20T04:16:06;6.23;;;2.83;;
21621;SDS011;10973;46.706;12.340;2023-12-20T04:18:34;5.10;;;3.00;;
21621;SDS011;10973;46.706;12.340;2023-12-20T04:21:01;4.10;;;2.90;;
21621;SDS011;10973;46.706;12.340;2023-12-20T04:23:30;3.37;;;2.40;;
21621;SDS011;10973;46.706;12.340;2023-12-20T04:25:57;5.93;;;3.07;;
21621;SDS011;10973;46.706;12.340;2023-12-20T04:28:25;3.10;;;2.80;;
21621;SDS011;10973;46.706;12.340;2023-12-20T04:30:53;5.63;;;4.50;;
21621;SDS011;10973;46.706;12.340;2023-12-20T04:33:21;9.37;;;5.27;;
21621;SDS011;10973;46.706;12.340;2023-12-20T04:35:48;7.23;;;4.37;;
21621;SDS011;10973;46.706;12.340;2023-12-20T04:38:16;6.67;;;4.40;;
21621;SDS011;10973;46.706;12.340;2023-12-20T04:40:44;5.33;;;4.17;;
21621;SDS011;10973;46.706;12.340;2023-12-20T04:43:11;4.67;;;4.07;;
21621;SDS011;10973;46.706;12.340;2023-12-20T04:45:39;7.33;;;4.23;;
21621;SDS011;10973;46.706;12.340;2023-12-20T04:48:07;5.13;;;4.53;;
21621;SDS011;10973;46.706;12.340;2023-12-20T04:50:35;7.40;;;5.10;;
21621;SDS011;10973;46.706;12.340;2023-12-20T04:53:03;6.63;;;4.80;;
21621;SDS011;10973;46.706;12.340;2023-12-20T04:55:31;9.10;;;4.40;;
21621;SDS011;10973;46.706;12.340;2023-12-20T04:57:58;6.73;;;4.60;;
21621;SDS011;10973;46.706;12.340;2023-12-20T05:00:26;6.00;;;5.10;;
21621;SDS011;10973;46.706;12.340;2023-12-20T05:02:54;7.33;;;5.10;;
21621;SDS011;10973;46.706;12.340;2023-12-20T05:05:21;8.63;;;6.10;;
21621;SDS011;10973;46.706;12.340;2023-12-20T05:07:49;10.20;;;6.67;;
21621;SDS011;10973;46.706;12.340;2023-12-20T05:10:17;37.80;;;20.97;;
21621;SDS011;10973;46.706;12.340;2023-12-20T05:12:44;44.07;;;22.07;;
21621;SDS011;10973;46.706;12.340;2023-12-20T05:15:12;32.17;;;18.30;;
21621;SDS011;10973;46.706;12.340;2023-12-20T05:17:41;14.63;;;10.70;;
21621;SDS011;10973;46.706;12.340;2023-12-20T05:20:09;17.97;;;11.77;;
21621;SDS011;10973;46.706;12.340;2023-12-20T05:22:36;23.37;;;12.97;;
21621;SDS011;10973;46.706;12.340;2023-12-20T05:25:04;20.53;;;11.43;;
21621;SDS011;10973;46.706;12.340;2023-12-20T05:27:33;14.37;;;9.70;;
21621;SDS011;10973;46.706;12.340;2023-12-20T05:30:00;15.17;;;10.00;;
21621;SDS011;10973;46.706;12.340;2023-12-20T05:32:28;20.93;;;11.77;;
21621;SDS011;10973;46.706;12.340;2023-12-20T05:34:56;15.67;;;10.97;;
21621;SDS011;10973;46.706;12.340;2023-12-20T05:37:23;23.37;;;12.33;;
21621;SDS011;10973;46.706;12.340;2023-12-20T05:39:51;13.33;;;9.10;;
21621;SDS011;10973;46.706;12.340;2023-12-20T05:42:19;18.27;;;13.17;;
21621;SDS011;10973;46.706;12.340;2023-12-20T05:44:47;15.23;;;10.40;;
21621;SDS011;10973;46.706;12.340;2023-12-20T05:47:18;15.47;;;7.50;;
21621;SDS011;10973;46.706;12.340;2023-12-20T05:49:45;17.33;;;8.87;;
21621;SDS011;10973;46.706;12.340;2023-12-20T05:52:13;125.90;;;77.53;;
21621;SDS011;10973;46.706;12.340;2023-12-20T05:54:41;77.37;;;40.37;;
21621;SDS011;10973;46.706;12.340;2023-12-20T05:57:09;24.53;;;13.87;;
21621;SDS011;10973;46.706;12.340;2023-12-20T05:59:36;22.30;;;13.37;;
21621;SDS011;10973;46.706;12.340;2023-12-20T06:02:04;25.80;;;14.90;;
21621;SDS011;10973;46.706;12.340;2023-12-20T06:04:32;18.60;;;12.27;;
21621;SDS011;10973;46.706;12.340;2023-12-20T06:07:00;22.20;;;11.77;;
21621;SDS011;10973;46.706;12.340;2023-12-20T06:09:27;17.73;;;11.00;;
21621;SDS011;10973;46.706;12.340;2023-12-20T06:11:57;18.13;;;12.57;;
21621;SDS011;10973;46.706;12.340;2023-12-20T06:14:25;24.93;;;13.00;;
21621;SDS011;10973;46.706;12.340;2023-12-20T06:16:53;24.60;;;14.53;;
21621;SDS011;10973;46.706;12.340;2023-12-20T06:19:21;27.67;;;16.37;;
21621;SDS011;10973;46.706;12.340;2023-12-20T06:21:49;20.10;;;13.03;;
21621;SDS011;10973;46.706;12.340;2023-12-20T06:24:17;20.87;;;13.83;;
21621;SDS011;10973;46.706;12.340;2023-12-20T06:26:44;25.43;;;15.07;;
21621;SDS011;10973;46.706;12.340;2023-12-20T06:29:12;23.03;;;13.23;;
21621;SDS011;10973;46.706;12.340;2023-12-20T06:31:40;19.97;;;11.70;;
21621;SDS011;10973;46.706;12.340;2023-12-20T06:34:07;31.33;;;20.73;;
21621;SDS011;10973;46.706;12.340;2023-12-20T06:36:36;54.17;;;30.07;;
21621;SDS011;10973;46.706;12.340;2023-12-20T06:39:03;47.47;;;26.43;;
21621;SDS011;10973;46.706;12.340;2023-12-20T06:41:31;26.63;;;16.93;;
21621;SDS011;10973;46.706;12.340;2023-12-20T06:43:59;21.10;;;14.50;;
21621;SDS011;10973;46.706;12.340;2023-12-20T06:46:27;25.10;;;14.87;;
21621;SDS011;10973;46.706;12.340;2023-12-20T06:48:54;19.70;;;11.67;;
21621;SDS011;10973;46.706;12.340;2023-12-20T06:51:22;15.50;;;11.57;;
21621;SDS011;10973;46.706;12.340;2023-12-20T06:53:51;14.47;;;10.83;;
21621;SDS011;10973;46.706;12.340;2023-12-20T06:56:19;21.13;;;14.23;;
21621;SDS011;10973;46.706;12.340;2023-12-20T06:58:47;16.27;;;12.90;;
21621;SDS011;10973;46.706;12.340;2023-12-20T07:01:15;16.10;;;10.30;;
21621;SDS011;10973;46.706;12.340;2023-12-20T07:03:43;12.80;;;9.07;;
21621;SDS011;10973;46.706;12.340;2023-12-20T07:06:12;11.97;;;9.33;;
21621;SDS011;10973;46.706;12.340;2023-12-20T07:08:43;12.57;;;9.63;;
21621;SDS011;10973;46.706;12.340;2023-12-20T07:11:11;15.20;;;10.03;;
21621;SDS011;10973;46.706;12.340;2023-12-20T07:13:39;12.10;;;8.67;;
21621;SDS011;10973;46.706;12.340;2023-12-20T07:16:06;10.00;;;7.77;;
21621;SDS011;10973;46.706;12.340;2023-12-20T07:18:34;15.83;;;9.50;;
21621;SDS011;10973;46.706;12.340;2023-12-20T07:21:01;13.17;;;9.10;;
21621;SDS011;10973;46.706;12.340;2023-12-20T07:23:29;11.70;;;8.20;;
21621;SDS011;10973;46.706;12.340;2023-12-20T07:25:57;12.47;;;9.13;;
21621;SDS011;10973;46.706;12.340;2023-12-20T07:28:25;20.37;;;9.77;;
21621;SDS011;10973;46.706;12.340;2023-12-20T07:30:55;15.33;;;8.07;;
21621;SDS011;10973;46.706;12.340;2023-12-20T07:33:22;10.87;;;7.40;;
21621;SDS011;10973;46.706;12.340;2023-12-20T07:35:50;9.30;;;7.10;;
21621;SDS011;10973;46.706;12.340;2023-12-20T07:38:20;11.00;;;7.53;;
21621;SDS011;10973;46.706;12.340;2023-12-20T07:40:47;9.77;;;6.53;;
21621;SDS011;10973;46.706;12.340;2023-12-20T07:43:15;15.03;;;8.00;;
21621;SDS011;10973;46.706;12.340;2023-12-20T07:45:43;9.20;;;6.97;;
21621;SDS011;10973;46.706;12.340;2023-12-20T07:48:10;11.03;;;7.07;;
21621;SDS011;10973;46.706;12.340;2023-12-20T07:50:38;9.90;;;7.20;;
21621;SDS011;10973;46.706;12.340;2023-12-20T07:53:08;14.73;;;9.43;;
21621;SDS011;10973;46.706;12.340;2023-12-20T07:55:36;14.93;;;10.40;;
21621;SDS011;10973;46.706;12.340;2023-12-20T07:58:06;13.33;;;10.07;;
21621;SDS011;10973;46.706;12.340;2023-12-20T08:00:34;12.30;;;10.07;;
21621;SDS011;10973;46.706;12.340;2023-12-20T08:03:02;11.33;;;8.27;;
21621;SDS011;10973;46.706;12.340;2023-12-20T08:05:30;11.43;;;7.57;;
21621;SDS011;10973;46.706;12.340;2023-12-20T08:08:00;14.93;;;10.20;;
21621;SDS011;10973;46.706;12.340;2023-12-20T08:10:28;14.97;;;9.13;;
21621;SDS011;10973;46.706;12.340;2023-12-20T08:12:56;17.97;;;12.37;;
21621;SDS011;10973;46.706;12.340;2023-12-20T08:15:23;15.73;;;11.60;;
21621;SDS011;10973;46.706;12.340;2023-12-20T08:17:53;14.80;;;9.67;;
21621;SDS011;10973;46.706;12.340;2023-12-20T08:20:21;16.43;;;11.97;;
21621;SDS011;10973;46.706;12.340;2023-12-20T08:22:58;11.93;;;9.27;;
21621;SDS011;10973;46.706;12.340;2023-12-20T08:25:35;11.80;;;9.13;;
21621;SDS011;10973;46.706;12.340;2023-12-20T08:28:08;11.77;;;8.20;;
21621;SDS011;10973;46.706;12.340;2023-12-20T08:30:35;10.83;;;7.53;;
21621;SDS011;10973;46.706;12.340;2023-12-20T08:33:03;11.93;;;8.87;;
21621;SDS011;10973;46.706;12.340;2023-12-20T08:35:31;12.73;;;9.00;;
21621;SDS011;10973;46.706;12.340;2023-12-20T08:37:58;15.97;;;9.47;;
21621;SDS011;10973;46.706;12.340;2023-12-20T08:40:26;10.40;;;8.47;;
21621;SDS011;10973;46.706;12.340;2023-12-20T08:42:54;14.90;;;9.60;;
21621;SDS011;10973;46.706;12.340;2023-12-20T08:45:21;12.10;;;8.53;;
21621;SDS011;10973;46.706;12.340;2023-12-20T08:47:49;12.53;;;9.93;;
21621;SDS011;10973;46.706;12.340;2023-12-20T08:50:18;21.53;;;15.27;;
21621;SDS011;10973;46.706;12.340;2023-12-20T08:52:45;23.60;;;15.80;;
21621;SDS011;10973;46.706;12.340;2023-12-20T08:55:13;18.93;;;12.57;;
21621;SDS011;10973;46.706;12.340;2023-12-20T08:57:41;19.10;;;11.83;;
21621;SDS011;10973;46.706;12.340;2023-12-20T09:00:09;18.83;;;11.80;;
21621;SDS011;10973;46.706;12.340;2023-12-20T09:02:37;11.17;;;8.97;;
21621;SDS011;10973;46.706;12.340;2023-12-20T09:05:05;14.13;;;8.70;;
21621;SDS011;10973;46.706;12.340;2023-12-20T09:07:33;12.03;;;8.23;;
21621;SDS011;10973;46.706;12.340;2023-12-20T09:10:01;9.47;;;7.63;;
21621;SDS011;10973;46.706;12.340;2023-12-20T09:12:28;8.80;;;6.90;;
21621;SDS011;10973;46.706;12.340;2023-12-20T09:14:56;7.70;;;6.90;;
21621;SDS011;10973;46.706;12.340;2023-12-20T09:17:23;8.23;;;6.47;;
21621;SDS011;10973;46.706;12.340;2023-12-20T09:19:52;9.47;;;6.67;;
21621;SDS011;10973;46.706;12.340;2023-12-20T09:22:19;8.93;;;6.43;;
21621;SDS011;10973;46.706;12.340;2023-12-20T09:24:47;6.23;;;5.50;;
21621;SDS011;10973;46.706;12.340;2023-12-20T09:27:15;5.80;;;5.20;;
21621;SDS011;10973;46.706;12.340;2023-12-20T09:29:43;6.17;;;5.57;;
21621;SDS011;10973;46.706;12.340;2023-12-20T09:32:10;17.30;;;8.00;;
21621;SDS011;10973;46.706;12.340;2023-12-20T09:34:37;12.60;;;7.50;;
21621;SDS011;10973;46.706;12.340;2023-12-20T09:37:05;10.70;;;7.33;;
21621;SDS011;10973;46.706;12.340;2023-12-20T09:39:33;8.83;;;6.83;;
21621;SDS011;10973;46.706;12.340;2023-12-20T09:42:02;10.30;;;6.67;;
21621;SDS011;10973;46.706;12.340;2023-12-20T09:44:31;9.33;;;7.37;;
21621;SDS011;10973;46.706;12.340;2023-12-20T09:47:01;9.53;;;6.10;;
21621;SDS011;10973;46.706;12.340;2023-12-20T09:49:30;9.97;;;5.90;;
21621;SDS011;10973;46.706;12.340;2023-12-20T09:52:00;13.40;;;8.27;;
21621;SDS011;10973;46.706;12.340;2023-12-20T09:54:31;16.00;;;10.13;;
21621;SDS011;10973;46.706;12.340;2023-12-20T09:56:59;15.07;;;9.53;;
21621;SDS011;10973;46.706;12.340;2023-12-20T09:59:26;10.43;;;6.83;;
21621;SDS011;10973;46.706;12.340;2023-12-20T10:01:55;7.57;;;5.83;;
21621;SDS011;10973;46.706;12.340;2023-12-20T10:04:24;8.27;;;6.50;;
21621;SDS011;10973;46.706;12.340;2023-12-20T10:06:56;11.00;;;7.23;;
21621;SDS011;10973;46.706;12.340;2023-12-20T10:09:32;8.13;;;6.37;;
21621;SDS011;10973;46.706;12.340;2023-12-20T10:12:01;9.07;;;6.60;;
21621;SDS011;10973;46.706;12.340;2023-12-20T10:14:28;8.17;;;5.50;;
21621;SDS011;10973;46.706;12.340;2023-12-20T10:17:01;5.53;;;5.03;;
21621;SDS011;10973;46.706;12.340;2023-12-20T10:19:30;6.63;;;4.67;;
21621;SDS011;10973;46.706;12.340;2023-12-20T10:21:59;4.50;;;4.10;;
21621;SDS011;10973;46.706;12.340;2023-12-20T10:24:31;7.33;;;4.70;;
21621;SDS011;10973;46.706;12.340;2023-12-20T10:27:03;6.37;;;5.23;;
21621;SDS011;10973;46.706;12.340;2023-12-20T10:29:34;45.10;;;25.50;;
21621;SDS011;10973;46.706;12.340;2023-12-20T10:34:52;47.00;;;28.43;;
21621;SDS011;10973;46.706;12.340;2023-12-20T10:37:22;31.90;;;19.97;;
21621;SDS011;10973;46.706;12.340;2023-12-20T10:39:51;17.00;;;10.53;;
21621;SDS011;10973;46.706;12.340;2023-12-20T10:42:21;12.37;;;9.10;;
21621;SDS011;10973;46.706;12.340;2023-12-20T10:44:49;13.03;;;9.70;;
21621;SDS011;10973;46.706;12.340;2023-12-20T10:47:17;9.13;;;6.70;;
21621;SDS011;10973;46.706;12.340;2023-12-20T10:49:46;8.67;;;7.40;;
21621;SDS011;10973;46.706;12.340;2023-12-20T10:52:14;10.83;;;7.90;;
21621;SDS011;10973;46.706;12.340;2023-12-20T10:54:44;10.40;;;8.10;;
21621;SDS011;10973;46.706;12.340;2023-12-20T10:57:12;8.57;;;7.53;;
21621;SDS011;10973;46.706;12.340;2023-12-20T10:59:40;8.80;;;6.83;;
21621;SDS011;10973;46.706;12.340;2023-12-20T11:02:15;6.63;;;5.90;;
21621;SDS011;10973;46.706;12.340;2023-12-20T11:07:41;5.50;;;5.00;;
21621;SDS011;10973;46.706;12.340;2023-12-20T11:12:53;5.80;;;4.60;;
21621;SDS011;10973;46.706;12.340;2023-12-20T11:15:39;10.47;;;7.43;;
21621;SDS011;10973;46.706;12.340;2023-12-20T11:18:07;10.40;;;8.47;;
21621;SDS011;10973;46.706;12.340;2023-12-20T11:20:40;17.33;;;11.27;;
21621;SDS011;10973;46.706;12.340;2023-12-20T11:23:08;15.20;;;11.00;;
21621;SDS011;10973;46.706;12.340;2023-12-20T11:25:52;24.40;;;20.60;;
21621;SDS011;10973;46.706;12.340;2023-12-20T11:28:23;7.40;;;6.60;;
21621;SDS011;10973;46.706;12.340;2023-12-20T11:31:00;5.77;;;5.17;;
21621;SDS011;10973;46.706;12.340;2023-12-20T11:33:30;9.43;;;7.30;;
21621;SDS011;10973;46.706;12.340;2023-12-20T11:36:06;13.80;;;10.20;;
21621;SDS011;10973;46.706;12.340;2023-12-20T11:38:57;8.00;;;7.20;;
21621;SDS011;10973;46.706;12.340;2023-12-20T11:41:25;7.10;;;5.80;;
21621;SDS011;10973;46.706;12.340;2023-12-20T11:43:53;5.47;;;4.97;;
21621;SDS011;10973;46.706;12.340;2023-12-20T11:46:22;11.17;;;9.10;;
21621;SDS011;10973;46.706;12.340;2023-12-20T11:48:50;10.97;;;8.40;;
21621;SDS011;10973;46.706;12.340;2023-12-20T11:51:18;6.13;;;5.20;;
21621;SDS011;10973;46.706;12.340;2023-12-20T11:53:50;15.30;;;12.30;;
21621;SDS011;10973;46.706;12.340;2023-12-20T11:56:19;10.13;;;7.90;;
21621;SDS011;10973;46.706;12.340;2023-12-20T11:58:47;9.43;;;7.93;;
21621;SDS011;10973;46.706;12.340;2023-12-20T12:01:16;3.73;;;3.43;;
21621;SDS011;10973;46.706;12.340;2023-12-20T12:03:46;4.93;;;4.27;;
21621;SDS011;10973;46.706;12.340;2023-12-20T12:06:14;6.90;;;4.70;;
21621;SDS011;10973;46.706;12.340;2023-12-20T12:08:42;10.07;;;7.93;;
21621;SDS011;10973;46.706;12.340;2023-12-20T12:11:09;19.50;;;10.90;;
21621;SDS011;10973;46.706;12.340;2023-12-20T12:13:37;39.90;;;19.33;;
21621;SDS011;10973;46.706;12.340;2023-12-20T12:16:05;23.40;;;11.93;;
21621;SDS011;10973;46.706;12.340;2023-12-20T12:18:33;27.47;;;11.90;;
21621;SDS011;10973;46.706;12.340;2023-12-20T12:21:00;17.57;;;9.43;;
21621;SDS011;10973;46.706;12.340;2023-12-20T12:23:28;17.23;;;8.30;;
21621;SDS011;10973;46.706;12.340;2023-12-20T12:25:56;13.77;;;8.20;;
21621;SDS011;10973;46.706;12.340;2023-12-20T12:28:25;17.03;;;9.10;;
21621;SDS011;10973;46.706;12.340;2023-12-20T12:31:00;13.17;;;7.63;;
21621;SDS011;10973;46.706;12.340;2023-12-20T12:33:28;15.93;;;8.80;;
21621;SDS011;10973;46.706;12.340;2023-12-20T12:35:56;11.47;;;7.23;;
21621;SDS011;10973;46.706;12.340;2023-12-20T12:38:24;10.83;;;6.43;;
21621;SDS011;10973;46.706;12.340;2023-12-20T12:40:51;14.33;;;10.07;;
21621;SDS011;10973;46.706;12.340;2023-12-20T12:43:21;17.03;;;13.13;;
21621;SDS011;10973;46.706;12.340;2023-12-20T12:45:50;14.83;;;11.70;;
21621;SDS011;10973;46.706;12.340;2023-12-20T12:48:18;11.90;;;10.53;;
21621;SDS011;10973;46.706;12.340;2023-12-20T12:50:46;13.47;;;9.63;;
21621;SDS011;10973;46.706;12.340;2023-12-20T12:53:13;12.17;;;9.07;;
21621;SDS011;10973;46.706;12.340;2023-12-20T12:55:41;15.30;;;11.37;;
21621;SDS011;10973;46.706;12.340;2023-12-20T12:58:08;19.20;;;12.07;;
21621;SDS011;10973;46.706;12.340;2023-12-20T13:00:36;25.67;;;16.23;;
21621;SDS011;10973;46.706;12.340;2023-12-20T13:03:03;30.53;;;19.00;;
21621;SDS011;10973;46.706;12.340;2023-12-20T13:05:31;30.37;;;19.23;;
21621;SDS011;10973;46.706;12.340;2023-12-20T13:08:05;29.57;;;18.13;;
21621;SDS011;10973;46.706;12.340;2023-12-20T13:10:36;32.90;;;18.43;;
21621;SDS011;10973;46.706;12.340;2023-12-20T13:13:04;30.13;;;18.50;;
21621;SDS011;10973;46.706;12.340;2023-12-20T13:15:31;17.03;;;11.40;;
21621;SDS011;10973;46.706;12.340;2023-12-20T13:18:01;11.33;;;7.87;;
21621;SDS011;10973;46.706;12.340;2023-12-20T13:20:29;13.17;;;8.70;;
21621;SDS011;10973;46.706;12.340;2023-12-20T13:22:57;14.47;;;9.20;;
21621;SDS011;10973;46.706;12.340;2023-12-20T13:25:24;16.83;;;11.73;;
21621;SDS011;10973;46.706;12.340;2023-12-20T13:27:53;20.43;;;11.13;;
21621;SDS011;10973;46.706;12.340;2023-12-20T13:30:20;18.20;;;10.80;;
21621;SDS011;10973;46.706;12.340;2023-12-20T13:32:48;15.23;;;8.93;;
21621;SDS011;10973;46.706;12.340;2023-12-20T13:35:16;16.87;;;8.83;;
21621;SDS011;10973;46.706;12.340;2023-12-20T13:37:43;16.93;;;10.33;;
21621;SDS011;10973;46.706;12.340;2023-12-20T13:40:11;21.13;;;12.00;;
21621;SDS011;10973;46.706;12.340;2023-12-20T13:42:39;25.00;;;13.50;;
21621;SDS011;10973;46.706;12.340;2023-12-20T13:45:07;28.60;;;17.00;;
21621;SDS011;10973;46.706;12.340;2023-12-20T13:47:35;26.07;;;13.90;;
21621;SDS011;10973;46.706;12.340;2023-12-20T13:50:03;22.53;;;12.43;;
21621;SDS011;10973;46.706;12.340;2023-12-20T13:52:31;22.93;;;13.33;;
21621;SDS011;10973;46.706;12.340;2023-12-20T13:55:04;18.57;;;10.07;;
21621;SDS011;10973;46.706;12.340;2023-12-20T13:57:33;14.57;;;9.03;;
21621;SDS011;10973;46.706;12.340;2023-12-20T14:00:17;16.10;;;9.50;;
21621;SDS011;10973;46.706;12.340;2023-12-20T14:02:45;14.60;;;8.67;;
21621;SDS011;10973;46.706;12.340;2023-12-20T14:05:13;13.40;;;9.13;;
21621;SDS011;10973;46.706;12.340;2023-12-20T14:07:41;11.13;;;8.57;;
21621;SDS011;10973;46.706;12.340;2023-12-20T14:10:11;16.37;;;10.53;;
21621;SDS011;10973;46.706;12.340;2023-12-20T14:12:42;17.80;;;11.63;;
21621;SDS011;10973;46.706;12.340;2023-12-20T14:15:11;19.10;;;12.30;;
21621;SDS011;10973;46.706;12.340;2023-12-20T14:17:39;18.57;;;12.87;;
21621;SDS011;10973;46.706;12.340;2023-12-20T14:20:08;20.57;;;12.40;;
21621;SDS011;10973;46.706;12.340;2023-12-20T14:22:37;17.57;;;12.30;;
21621;SDS011;10973;46.706;12.340;2023-12-20T14:25:04;18.80;;;12.77;;
21621;SDS011;10973;46.706;12.340;2023-12-20T14:27:33;16.17;;;11.90;;
21621;SDS011;10973;46.706;12.340;2023-12-20T14:30:01;15.83;;;10.93;;
21621;SDS011;10973;46.706;12.340;2023-12-20T14:32:31;16.47;;;11.33;;
21621;SDS011;10973;46.706;12.340;2023-12-20T14:35:01;14.97;;;10.90;;
21621;SDS011;10973;46.706;12.340;2023-12-20T14:37:29;12.80;;;9.60;;
21621;SDS011;10973;46.706;12.340;2023-12-20T14:39:57;17.37;;;11.50;;